Aviation Digital Data Service (ADDS)

Output produced by METARs form (1338 UTC 27 April 2015)
found at http://aviationweather.gov/adds/metars/
 
KLFT 271136Z 2712/2812 VRB05KT 5SM BR SCT040 
     FM271300 09008KT 6SM BR VCTS OVC035CB 
     TEMPO 2713/2715 30020G30KT 1/2SM +TSRA OVC006CB 
     FM271600 12010G15KT P6SM -RA OVC080 
     FM271800 06010KT P6SM OVC250